Colonia Sao Joao, Brazil
Current Conditions -  °F | °C
As of 11:00 PM on Sunday 21 Dec 2014 (Local Time) from SBPF Reporting Station
Overcast Overcast  
Wind Chill: 63°   Ceiling: 200
Heat Index: 63°   Visibility: 5mi
Dew Point: 61°   Wind: 7mph
Humidity: 94%   Direction: 250°WSW
Pressure: 29.8"   Gusts: NA
Location:  28.71°S, 53.29°W
Report Text: SBPF 220100Z 25006KT 8000 BKN002 OVC030 17/16 Q1009
Loading
Personal Weather Stations






























Interactive Weather Map New forecast layout! Learn more

10-Day Weather Forecast

Advertisements
Track Severe Weather on mobile